Time;durP1;ratioP1;P1;durP2;ratioP2;P2;SDS_P1;SDS_P2;PMS_P1;PMS_P2;Temp;Humidity;BMP_temperature;BMP_pressure;BME280_temperature;BME280_humidity;BME280_pressure;Samples;Min_cycle;Max_cycle;Signal;HPM_P1;HPM_P2
2022/09/16 00:00:22;;;;;;;0.98;0.40;;;11.70;99.90;;;;;;5115309;28;20039;-66
2022/09/16 00:02:51;;;;;;;0.70;0.38;;;11.40;99.90;;;;;;5097170;28;20097;-65
2022/09/16 00:05:17;;;;;;;2.53;0.32;;;11.40;99.90;;;;;;5097000;28;20032;-66
2022/09/16 00:07:43;;;;;;;0.25;0.25;;;11.50;99.90;;;;;;5114707;28;20031;-66
2022/09/16 00:10:09;;;;;;;0.43;0.30;;;11.60;99.90;;;;;;5115473;28;20035;-65
2022/09/16 00:12:35;;;;;;;0.47;0.30;;;11.30;99.90;;;;;;5115179;28;20059;-66
2022/09/16 00:15:01;;;;;;;0.52;0.40;;;11.30;99.90;;;;;;5115386;28;20043;-66
2022/09/16 00:17:28;;;;;;;3.03;0.30;;;11.20;99.90;;;;;;5096752;28;20054;-66
2022/09/16 00:19:55;;;;;;;0.20;0.20;;;11.30;99.90;;;;;;5114988;28;20491;-65
2022/09/16 00:22:20;;;;;;;0.45;0.40;;;11.30;99.90;;;;;;5114837;28;20060;-65
2022/09/16 00:24:47;;;;;;;1.42;0.57;;;11.20;99.90;;;;;;5114818;28;20032;-66
2022/09/16 00:27:13;;;;;;;4.55;0.40;;;11.20;99.90;;;;;;5096945;28;20500;-65
2022/09/16 00:29:39;;;;;;;0.85;0.38;;;11.10;99.90;;;;;;5115106;28;20128;-65
2022/09/16 00:32:05;;;;;;;0.20;0.20;;;11.50;99.90;;;;;;5115006;28;20043;-66
2022/09/16 00:34:30;;;;;;;0.30;0.30;;;11.40;99.90;;;;;;5114754;28;20038;-66
2022/09/16 00:36:56;;;;;;;3.08;0.50;;;11.20;99.90;;;;;;5114961;28;20067;-66
2022/09/16 00:39:22;;;;;;;0.20;0.20;;;11.50;99.90;;;;;;5114625;28;20502;-65
2022/09/16 00:41:47;;;;;;;0.30;0.20;;;11.30;99.90;;;;;;5079158;28;20092;-66
2022/09/16 00:45:04;;;;;;;3.35;0.50;;;11.20;99.90;;;;;;5114824;28;20100;-65
2022/09/16 00:47:42;;;;;;;1.17;0.40;;;11.20;99.90;;;;;;5052113;28;20085;-66
2022/09/16 00:50:14;;;;;;;3.45;0.68;;;11.30;99.90;;;;;;5114462;28;20470;-65
2022/09/16 00:52:41;;;;;;;0.20;0.20;;;11.20;99.90;;;;;;5114587;28;20390;-65
2022/09/16 00:55:12;;;;;;;0.63;0.32;;;11.60;99.90;;;;;;5114638;28;20043;-67
2022/09/16 00:57:39;;;;;;;1.48;0.40;;;11.30;99.90;;;;;;5095998;28;20052;-68
2022/09/16 01:00:08;;;;;;;1.20;0.47;;;11.20;99.90;;;;;;5114480;28;20439;-65
2022/09/16 01:02:34;;;;;;;0.55;0.30;;;11.20;99.90;;;;;;5114192;28;20043;-65
2022/09/16 01:05:11;;;;;;;2.10;0.35;;;11.20;99.90;;;;;;5095944;28;20044;-65
2022/09/16 01:07:50;;;;;;;0.52;0.32;;;11.20;99.90;;;;;;5114484;28;20028;-65
2022/09/16 01:10:23;;;;;;;1.15;0.40;;;11.50;99.90;;;;;;5113991;28;20039;-65
2022/09/16 01:12:53;;;;;;;0.30;0.30;;;11.20;99.90;;;;;;5114312;28;20036;-65
2022/09/16 01:15:25;;;;;;;0.30;0.30;;;11.20;99.90;;;;;;5114007;28;20071;-65
2022/09/16 01:18:15;;;;;;;0.30;0.20;;;11.10;99.90;;;;;;5113865;28;20039;-65
2022/09/16 01:20:50;;;;;;;1.77;0.45;;;11.20;99.90;;;;;;5113310;28;20188;-65
2022/09/16 01:23:57;;;;;;;0.85;0.43;;;11.30;99.90;;;;;;5113716;28;20050;-66
2022/09/16 01:26:42;;;;;;;0.68;0.30;;;11.20;99.90;;;;;;5075404;28;20463;-65
2022/09/16 01:29:35;;;;;;;0.45;0.30;;;11.50;99.90;;;;;;5113724;28;20078;-65
2022/09/16 01:32:15;;;;;;;0.90;0.30;;;11.30;99.90;;;;;;5113933;28;20047;-64
2022/09/16 01:35:07;;;;;;;3.33;0.50;;;11.20;99.90;;;;;;5113684;28;20045;-65
2022/09/16 01:37:44;;;;;;;1.63;0.25;;;11.30;99.90;;;;;;5113875;28;20035;-65
2022/09/16 01:40:13;;;;;;;1.73;0.40;;;11.20;99.90;;;;;;5095331;28;20039;-65
2022/09/16 01:42:59;;;;;;;0.95;0.55;;;11.30;99.90;;;;;;5113342;28;20464;-65
2022/09/16 01:45:50;;;;;;;1.30;0.50;;;11.40;99.90;;;;;;5113736;28;20114;-65
2022/09/16 01:48:23;;;;;;;1.83;0.30;;;11.20;99.90;;;;;;5095258;28;20120;-65
2022/09/16 01:51:27;;;;;;;0.30;0.20;;;11.30;99.90;;;;;;5095160;28;20056;-65
2022/09/16 01:53:59;;;;;;;0.52;0.20;;;11.60;99.90;;;;;;5098839;28;20044;-65
2022/09/16 01:56:45;;;;;;;1.08;0.30;;;11.30;99.90;;;;;;5113565;28;20064;-65
2022/09/16 01:59:30;;;;;;;0.82;0.30;;;11.20;99.90;;;;;;5113606;28;20031;-65
2022/09/16 02:02:08;;;;;;;0.22;0.20;;;11.30;99.90;;;;;;5113462;28;20042;-65
2022/09/16 02:04:42;;;;;;;3.70;0.40;;;11.20;99.90;;;;;;5113498;28;20505;-65
2022/09/16 02:07:11;;;;;;;1.15;0.40;;;11.50;99.90;;;;;;5094937;28;20144;-64
2022/09/16 02:09:42;;;;;;;1.17;0.40;;;11.20;99.90;;;;;;5113418;28;20038;-65
2022/09/16 02:12:13;;;;;;;0.47;0.43;;;11.40;99.90;;;;;;5113275;28;20446;-65
2022/09/16 02:14:43;;;;;;;0.25;0.25;;;11.10;99.90;;;;;;5113115;28;20044;-65
2022/09/16 02:17:12;;;;;;;0.40;0.30;;;10.90;99.90;;;;;;5113099;28;20039;-65
2022/09/16 02:19:45;;;;;;;0.57;0.40;;;11.30;99.90;;;;;;5113377;28;20089;-67
2022/09/16 02:22:15;;;;;;;0.90;0.40;;;11.10;99.90;;;;;;5113035;28;20110;-65
2022/09/16 02:24:45;;;;;;;0.63;0.40;;;11.30;99.90;;;;;;5113294;28;20039;-65
2022/09/16 02:27:16;;;;;;;0.95;0.40;;;11.30;99.90;;;;;;5095106;28;20055;-65
2022/09/16 02:29:51;;;;;;;3.05;0.43;;;11.00;99.90;;;;;;5094716;28;20042;-65
2022/09/16 02:32:20;;;;;;;0.90;0.45;;;10.90;99.90;;;;;;5116789;28;20509;-65
2022/09/16 02:34:49;;;;;;;1.75;0.40;;;11.20;99.90;;;;;;5117275;28;20501;-65
2022/09/16 02:37:27;;;;;;;1.67;0.38;;;11.40;99.90;;;;;;5116960;28;20043;-65
2022/09/16 02:39:56;;;;;;;1.55;0.73;;;10.90;99.90;;;;;;5117175;28;20475;-65
2022/09/16 02:42:22;;;;;;;0.22;0.22;;;10.90;99.90;;;;;;5116841;28;20403;-65
2022/09/16 02:44:49;;;;;;;0.80;0.35;;;10.80;99.90;;;;;;5117105;28;20035;-65
2022/09/16 02:47:46;;;;;;;1.45;0.47;;;11.00;99.90;;;;;;5117119;28;20096;-65
2022/09/16 02:50:24;;;;;;;0.50;0.40;;;11.00;99.90;;;;;;5117060;28;20466;-64
2022/09/16 02:53:03;;;;;;;2.28;0.47;;;10.90;99.90;;;;;;5116965;28;20046;-65
2022/09/16 02:56:01;;;;;;;0.40;0.40;;;11.10;99.90;;;;;;5116682;28;20043;-65
2022/09/16 02:58:28;;;;;;;0.32;0.20;;;11.00;99.90;;;;;;5100350;28;20047;-64
2022/09/16 03:00:55;;;;;;;1.10;0.50;;;11.00;99.90;;;;;;5098227;28;20047;-65
2022/09/16 03:03:21;;;;;;;1.38;0.70;;;11.30;99.90;;;;;;5098128;28;20042;-65
2022/09/16 03:06:07;;;;;;;0.90;0.30;;;11.00;99.90;;;;;;5116460;28;20031;-65
2022/09/16 03:08:34;;;;;;;0.30;0.30;;;11.00;99.90;;;;;;5116683;28;20043;-65
2022/09/16 03:11:24;;;;;;;1.77;0.40;;;11.20;99.90;;;;;;5116546;28;20114;-65
2022/09/16 03:14:11;;;;;;;0.57;0.38;;;10.90;99.90;;;;;;5116602;28;20031;-65
2022/09/16 03:17:11;;;;;;;0.95;0.40;;;11.00;99.90;;;;;;5116529;28;20057;-64
2022/09/16 03:19:43;;;;;;;0.50;0.35;;;11.00;99.90;;;;;;5072634;28;20043;-65
2022/09/16 03:22:28;;;;;;;1.73;0.40;;;11.30;99.90;;;;;;5116377;28;20066;-65
2022/09/16 03:25:16;;;;;;;2.70;0.52;;;11.00;99.90;;;;;;5116393;28;20051;-65
2022/09/16 03:27:49;;;;;;;0.73;0.40;;;11.00;99.90;;;;;;5116306;28;20095;-65
2022/09/16 03:30:15;;;;;;;1.70;0.40;;;11.00;99.90;;;;;;5115944;28;20040;-65
2022/09/16 03:33:10;;;;;;;5.25;0.63;;;11.00;99.90;;;;;;5098004;28;20043;-65
2022/09/16 03:35:49;;;;;;;3.75;0.40;;;11.00;99.90;;;;;;5097990;28;20090;-65
2022/09/16 03:38:16;;;;;;;0.57;0.30;;;11.00;99.90;;;;;;5098019;28;20047;-65
2022/09/16 03:40:42;;;;;;;0.45;0.38;;;11.00;99.90;;;;;;5116130;28;20051;-65
2022/09/16 03:43:12;;;;;;;0.22;0.22;;;11.00;99.90;;;;;;5114583;28;20100;-65
2022/09/16 03:45:39;;;;;;;0.47;0.30;;;10.90;99.90;;;;;;5115966;28;20044;-65
2022/09/16 03:48:05;;;;;;;1.58;0.60;;;11.10;99.90;;;;;;5115655;28;20035;-65
2022/09/16 03:50:31;;;;;;;0.57;0.28;;;10.90;99.90;;;;;;5115842;28;20070;-65
2022/09/16 03:52:57;;;;;;;0.20;0.20;;;11.30;99.90;;;;;;5097657;28;20156;-65
2022/09/16 03:55:22;;;;;;;0.60;0.60;;;10.80;99.90;;;;;;5115607;28;20120;-64
2022/09/16 03:57:48;;;;;;;0.15;0.15;;;10.80;99.90;;;;;;5115730;28;20035;-65
2022/09/16 04:00:14;;;;;;;0.55;0.43;;;10.80;99.90;;;;;;5115698;28;20036;-64
2022/09/16 04:02:40;;;;;;;0.32;0.30;;;10.70;99.90;;;;;;5115311;28;20046;-65
2022/09/16 04:05:07;;;;;;;0.50;0.22;;;11.00;99.90;;;;;;5097108;28;20130;-65
2022/09/16 04:07:34;;;;;;;0.30;0.30;;;10.70;99.90;;;;;;5115239;28;20047;-65
2022/09/16 04:10:00;;;;;;;3.83;0.40;;;11.00;99.90;;;;;;5115584;28;20080;-64
2022/09/16 04:12:27;;;;;;;0.20;0.20;;;10.90;99.90;;;;;;5096886;28;20047;-65
2022/09/16 04:14:53;;;;;;;1.30;0.20;;;11.10;99.90;;;;;;5115375;28;20123;-65
2022/09/16 04:17:18;;;;;;;1.40;0.30;;;10.60;99.90;;;;;;5115150;28;20118;-65
2022/09/16 04:19:44;;;;;;;0.93;0.40;;;10.80;99.90;;;;;;5115283;28;20390;-65
2022/09/16 04:22:10;;;;;;;2.35;0.30;;;10.60;99.90;;;;;;5115220;28;20043;-65
2022/09/16 04:24:35;;;;;;;0.30;0.30;;;11.00;99.90;;;;;;5115216;28;20448;-65
2022/09/16 04:27:01;;;;;;;1.33;0.40;;;10.60;99.90;;;;;;5115167;28;20067;-65
2022/09/16 04:29:26;;;;;;;1.77;0.40;;;11.10;99.90;;;;;;5115134;28;20348;-65
2022/09/16 04:31:53;;;;;;;0.30;0.30;;;10.90;99.90;;;;;;5096711;28;20042;-65
2022/09/16 04:34:19;;;;;;;0.45;0.30;;;11.30;99.90;;;;;;5114707;28;20119;-65
2022/09/16 04:36:45;;;;;;;0.32;0.32;;;10.50;99.90;;;;;;5114974;28;20123;-65
2022/09/16 04:39:11;;;;;;;0.30;0.30;;;11.10;99.90;;;;;;5114563;28;20063;-65
2022/09/16 04:41:37;;;;;;;1.23;0.45;;;10.50;99.90;;;;;;5110370;28;20044;-64
2022/09/16 04:44:04;;;;;;;1.98;0.55;;;10.40;99.90;;;;;;5094221;28;20497;-64
2022/09/16 04:46:31;;;;;;;0.40;0.40;;;10.80;99.90;;;;;;5092972;28;20044;-65
2022/09/16 04:48:58;;;;;;;2.65;0.45;;;10.30;99.90;;;;;;5094362;28;20074;-64
2022/09/16 04:51:26;;;;;;;2.03;0.52;;;10.50;99.90;;;;;;5094023;28;20043;-64
2022/09/16 04:53:53;;;;;;;0.43;0.28;;;10.40;99.90;;;;;;5093862;28;20044;-64
2022/09/16 04:56:22;;;;;;;0.28;0.20;;;10.70;99.90;;;;;;5094256;28;20048;-64
2022/09/16 04:58:50;;;;;;;2.60;0.47;;;10.30;99.90;;;;;;5094225;28;20044;-65
2022/09/16 05:01:23;;;;;;;5.93;0.50;;;;;;;;;;5093812;28;20113;-65
2022/09/16 05:03:51;;;;;;;1.45;0.43;;;;;;;;;;5093982;28;20044;-64
2022/09/16 05:06:22;;;;;;;1.23;0.35;;;;;;;;;;5094010;28;20066;-64
2022/09/16 05:08:51;;;;;;;1.00;0.38;;;;;;;;;;5093969;28;20097;-65
2022/09/16 05:11:29;;;;;;;2.08;0.63;;;;;;;;;;5093711;28;20039;-64
2022/09/16 05:13:58;;;;;;;0.45;0.40;;;;;;;;;;5092374;28;20043;-64
2022/09/16 05:16:24;;;;;;;0.20;0.20;;;9.90;99.90;;;;;;5093874;28;20483;-66
2022/09/16 05:18:52;;;;;;;1.23;0.45;;;10.50;99.90;;;;;;5093527;28;20043;-64
2022/09/16 05:21:20;;;;;;;1.35;0.45;;;10.70;99.90;;;;;;5093777;28;20032;-64
2022/09/16 05:23:46;;;;;;;0.32;0.32;;;10.50;99.90;;;;;;5093346;28;20050;-64
2022/09/16 05:26:18;;;;;;;1.45;0.32;;;10.80;99.90;;;;;;5093619;28;20028;-64
2022/09/16 05:28:44;;;;;;;0.30;0.30;;;10.70;99.90;;;;;;5093319;28;20390;-64
2022/09/16 05:31:17;;;;;;;0.25;0.22;;;10.30;99.90;;;;;;5093206;28;20039;-64
2022/09/16 05:33:45;;;;;;;3.53;0.40;;;10.30;99.90;;;;;;5093567;28;20044;-64
2022/09/16 05:36:14;;;;;;;0.80;0.38;;;10.30;99.90;;;;;;5092010;28;20117;-64
2022/09/16 05:38:40;;;;;;;0.68;0.40;;;10.20;99.90;;;;;;5093545;28;20101;-64
2022/09/16 05:41:06;;;;;;;0.98;0.45;;;10.40;99.90;;;;;;5093513;28;20044;-64
2022/09/16 05:43:32;;;;;;;0.35;0.30;;;10.40;99.90;;;;;;5113384;28;20052;-64
2022/09/16 05:45:58;;;;;;;1.42;0.52;;;10.40;99.90;;;;;;5113484;28;20031;-64
2022/09/16 05:48:25;;;;;;;0.20;0.20;;;10.30;99.90;;;;;;5113693;28;20039;-64
2022/09/16 05:50:56;;;;;;;4.00;0.77;;;10.70;99.90;;;;;;5113331;28;20039;-64
2022/09/16 05:53:24;;;;;;;1.95;0.40;;;10.30;99.90;;;;;;5113594;28;20042;-65
2022/09/16 05:55:54;;;;;;;0.30;0.30;;;;;;;;;;5113304;28;20047;-65
2022/09/16 05:58:20;;;;;;;0.60;0.50;;;10.30;99.90;;;;;;5113626;28;20089;-64
2022/09/16 06:00:45;;;;;;;3.92;0.50;;;10.70;99.90;;;;;;5094900;28;20444;-64
2022/09/16 06:03:11;;;;;;;0.88;0.38;;;10.50;99.90;;;;;;5113446;28;20039;-64
2022/09/16 06:05:36;;;;;;;4.85;0.40;;;10.50;99.90;;;;;;5112952;28;20070;-63
2022/09/16 06:08:02;;;;;;;2.67;0.60;;;10.60;99.90;;;;;;5113527;28;20031;-64
2022/09/16 06:10:28;;;;;;;1.58;0.35;;;10.60;99.90;;;;;;5113504;28;20487;-63
2022/09/16 06:12:54;;;;;;;0.57;0.20;;;10.60;99.90;;;;;;5113175;28;20081;-64
2022/09/16 06:15:20;;;;;;;1.15;0.50;;;10.90;99.90;;;;;;5113093;28;20036;-64
2022/09/16 06:17:45;;;;;;;1.08;0.40;;;10.70;99.90;;;;;;5113369;28;20040;-63
2022/09/16 06:20:13;;;;;;;1.33;0.43;;;10.70;99.90;;;;;;5113316;28;20483;-64
2022/09/16 06:22:39;;;;;;;1.58;0.40;;;10.90;99.90;;;;;;5113288;28;20474;-64
2022/09/16 06:25:06;;;;;;;0.50;0.30;;;11.10;99.90;;;;;;5094885;28;20036;-64
2022/09/16 06:27:32;;;;;;;0.63;0.38;;;10.80;99.90;;;;;;5113249;28;20086;-63
2022/09/16 06:29:58;;;;;;;1.45;0.40;;;;;;;;;;5113302;28;20050;-64
2022/09/16 06:32:24;;;;;;;0.22;0.22;;;;;;;;;;5113246;28;20039;-64
2022/09/16 06:34:50;;;;;;;1.05;0.32;;;11.00;99.90;;;;;;5112942;28;20093;-64
2022/09/16 06:37:15;;;;;;;1.95;0.45;;;11.00;99.90;;;;;;5112938;28;20040;-64
2022/09/16 06:39:42;;;;;;;2.10;0.50;;;;;;;;;;5113224;28;20088;-64
2022/09/16 06:42:08;;;;;;;4.60;0.40;;;11.10;99.90;;;;;;5112886;28;20052;-64
2022/09/16 06:44:34;;;;;;;2.92;0.32;;;11.20;99.90;;;;;;5113240;28;20402;-65
2022/09/16 06:46:59;;;;;;;2.35;0.55;;;11.30;99.90;;;;;;5113215;28;20048;-64
2022/09/16 06:49:25;;;;;;;0.35;0.32;;;11.40;99.90;;;;;;5112779;28;20118;-64
2022/09/16 06:51:50;;;;;;;0.75;0.50;;;11.80;99.90;;;;;;5094868;28;20079;-64
2022/09/16 06:54:16;;;;;;;1.00;0.40;;;11.50;99.90;;;;;;5113127;28;20036;-64
2022/09/16 06:56:42;;;;;;;0.75;0.32;;;11.60;99.90;;;;;;5077807;28;20127;-63
2022/09/16 06:59:09;;;;;;;2.10;0.47;;;12.00;99.90;;;;;;5113037;28;20048;-63
2022/09/16 07:01:35;;;;;;;1.00;0.50;;;11.90;99.90;;;;;;5112729;28;20042;-64
2022/09/16 07:04:07;;;;;;;1.42;0.40;;;;;;;;;;5112603;28;20082;-64
2022/09/16 07:06:33;;;;;;;0.60;0.60;;;11.90;99.90;;;;;;5094373;28;20048;-64
2022/09/16 07:08:59;;;;;;;1.13;0.40;;;12.10;99.90;;;;;;5112948;28;20412;-63
2022/09/16 07:11:25;;;;;;;1.70;0.40;;;12.50;99.90;;;;;;5112889;28;20046;-63
2022/09/16 07:13:51;;;;;;;1.17;0.38;;;12.30;99.90;;;;;;5112913;28;20039;-64
2022/09/16 07:16:22;;;;;;;1.45;0.40;;;12.40;99.90;;;;;;5112918;28;20071;-64
2022/09/16 07:18:53;;;;;;;0.93;0.38;;;12.50;99.90;;;;;;5114935;28;20114;-63
2022/09/16 07:21:23;;;;;;;1.23;0.50;;;12.80;99.90;;;;;;5116026;28;20122;-63
2022/09/16 07:23:49;;;;;;;1.13;0.63;;;12.70;99.90;;;;;;5116264;28;20146;-63
2022/09/16 07:26:20;;;;;;;1.10;0.52;;;12.70;99.90;;;;;;5115826;28;20044;-63
2022/09/16 07:28:48;;;;;;;0.50;0.45;;;12.70;99.90;;;;;;5097949;28;20039;-63
2022/09/16 07:31:19;;;;;;;0.57;0.40;;;12.60;99.90;;;;;;5097606;28;20509;-63
2022/09/16 07:33:47;;;;;;;2.25;0.80;;;12.70;99.90;;;;;;5097883;28;20172;-64
2022/09/16 07:36:15;;;;;;;0.50;0.30;;;12.70;99.90;;;;;;5098021;28;20055;-63
2022/09/16 07:38:41;;;;;;;0.30;0.28;;;12.80;99.90;;;;;;5115852;28;20115;-63
2022/09/16 07:41:15;;;;;;;4.07;0.73;;;12.80;99.90;;;;;;5115687;28;20035;-63
2022/09/16 07:43:41;;;;;;;1.55;0.45;;;13.00;99.90;;;;;;5097767;28;20511;-63
2022/09/16 07:46:11;;;;;;;0.63;0.45;;;13.00;99.90;;;;;;5095465;28;20044;-63
2022/09/16 07:48:38;;;;;;;1.20;0.52;;;13.10;99.90;;;;;;5094042;28;20036;-63
2022/09/16 07:51:09;;;;;;;1.77;0.45;;;12.80;99.90;;;;;;5095564;28;20055;-64
2022/09/16 07:53:35;;;;;;;6.90;0.60;;;13.00;99.90;;;;;;5095521;28;20140;-63
2022/09/16 07:56:04;;;;;;;2.35;0.43;;;12.90;99.90;;;;;;5093865;28;20130;-63
2022/09/16 08:01:54;;;;;;;0.77;0.47;;;13.20;99.90;;;;;;4392935;22;20052;-72
2022/09/16 08:04:20;;;;;;;0.40;0.30;;;13.50;99.90;;;;;;5057544;28;20055;-72
2022/09/16 08:06:46;;;;;;;0.35;0.32;;;13.40;99.90;;;;;;5024251;28;20037;-72
2022/09/16 08:09:13;;;;;;;3.08;0.50;;;13.70;99.90;;;;;;5040619;28;20039;-72
2022/09/16 08:11:39;;;;;;;1.02;0.38;;;13.70;99.90;;;;;;5041118;28;20475;-72
2022/09/16 08:14:05;;;;;;;2.08;1.10;;;13.80;99.90;;;;;;5057148;28;20093;-72
2022/09/16 08:19:08;;;;;;;2.80;0.47;;;13.80;98.10;;;;;;4531237;22;20045;-72
2022/09/16 08:21:33;;;;;;;1.80;0.60;;;14.00;96.90;;;;;;5056973;28;20040;-70
2022/09/16 08:23:59;;;;;;;2.10;1.00;;;14.10;97.10;;;;;;5056805;28;20036;-70
2022/09/16 08:26:28;;;;;;;3.38;0.75;;;14.20;96.10;;;;;;5024691;28;20055;-70
2022/09/16 08:28:54;;;;;;;2.25;0.50;;;14.30;95.50;;;;;;5056631;28;20501;-70
2022/09/16 08:31:19;;;;;;;4.65;0.68;;;14.40;94.40;;;;;;5056808;28;20123;-70
2022/09/16 08:33:46;;;;;;;2.25;1.00;;;14.30;94.40;;;;;;5056896;28;20048;-69
2022/09/16 08:36:20;;;;;;;3.72;0.68;;;14.30;96.20;;;;;;5057167;28;20051;-70
2022/09/16 08:38:48;;;;;;;2.17;0.73;;;14.30;95.50;;;;;;5040038;28;20037;-70
2022/09/16 08:41:17;;;;;;;0.57;0.47;;;14.40;95.10;;;;;;5056563;28;20051;-70
2022/09/16 08:44:02;;;;;;;2.90;0.50;;;14.40;94.50;;;;;;5039830;28;20037;-72
2022/09/16 08:46:52;;;;;;;3.40;0.80;;;14.60;94.50;;;;;;5056411;28;20048;-72
2022/09/16 08:49:40;;;;;;;4.20;0.77;;;14.70;94.80;;;;;;5056412;28;20051;-71
2022/09/16 08:52:24;;;;;;;0.88;0.47;;;14.70;93.70;;;;;;5039620;28;20047;-72
2022/09/16 08:55:18;;;;;;;2.35;0.80;;;14.70;92.00;;;;;;5056462;28;20509;-72
2022/09/16 08:57:56;;;;;;;1.85;0.70;;;14.60;84.70;;;;;;5052426;28;20045;-72
2022/09/16 09:00:22;;;;;;;3.30;0.70;;;14.80;78.70;;;;;;5056115;28;20124;-72
2022/09/16 09:03:12;;;;;;;1.67;0.43;;;14.80;83.30;;;;;;5056151;28;20461;-72
2022/09/16 09:05:57;;;;;;;3.38;1.02;;;14.80;85.70;;;;;;5055982;28;20051;-72
2022/09/16 09:08:50;;;;;;;6.18;0.90;;;14.90;87.50;;;;;;5056213;28;20546;-72
2022/09/16 09:11:22;;;;;;;5.65;0.77;;;14.90;88.10;;;;;;5055951;28;20040;-72
2022/09/16 09:14:18;;;;;;;3.05;0.63;;;14.90;83.60;;;;;;5056144;28;20479;-73
2022/09/16 09:17:02;;;;;;;5.85;0.93;;;14.90;86.30;;;;;;5056085;28;20538;-72
2022/09/16 09:19:55;;;;;;;2.38;0.68;;;15.00;82.00;;;;;;5035886;28;20049;-72
2022/09/16 09:22:57;;;;;;;1.70;0.60;;;15.00;65.40;;;;;;5019302;28;20045;-72
2022/09/16 09:25:53;;;;;;;4.03;0.80;;;15.00;74.50;;;;;;5036048;28;20506;-72
2022/09/16 09:28:38;;;;;;;1.48;0.45;;;15.10;67.90;;;;;;5035652;28;20052;-73
2022/09/16 09:31:45;;;;;;;2.88;0.85;;;15.20;78.60;;;;;;5019306;28;20044;-72
2022/09/16 09:34:35;;;;;;;2.70;0.73;;;15.40;74.30;;;;;;5019496;28;20504;-72
2022/09/16 09:37:38;;;;;;;1.83;0.60;;;15.60;86.20;;;;;;5019395;28;20041;-72
2022/09/16 09:40:41;;;;;;;5.30;0.47;;;15.60;76.30;;;;;;5018846;28;20049;-72
2022/09/16 09:43:23;;;;;;;1.58;0.77;;;15.40;54.50;;;;;;5035474;28;20111;-72
2022/09/16 09:46:06;;;;;;;1.65;0.50;;;15.20;50.10;;;;;;5019012;28;20044;-73
2022/09/16 09:48:40;;;;;;;0.82;0.40;;;15.40;44.90;;;;;;5035524;28;20049;-71
2022/09/16 09:51:32;;;;;;;3.20;0.68;;;15.70;30.70;;;;;;5035424;28;20040;-72
2022/09/16 09:54:04;;;;;;;1.73;0.35;;;15.50;46.30;;;;;;5035093;28;20423;-72
2022/09/16 09:56:38;;;;;;;1.25;0.43;;;15.60;45.10;;;;;;5035620;28;20377;-71
2022/09/16 09:59:13;;;;;;;1.33;0.40;;;15.80;45.80;;;;;;5035295;28;20041;-70
2022/09/16 10:01:39;;;;;;;3.92;0.52;;;15.80;25.30;;;;;;5035244;28;20048;-72
2022/09/16 10:04:13;;;;;;;2.17;0.40;;;16.10;38.40;;;;;;5035270;28;20099;-72
2022/09/16 10:06:40;;;;;;;3.70;0.55;;;16.30;24.30;;;;;;5035480;28;20048;-72
2022/09/16 10:09:12;;;;;;;2.45;0.50;;;16.30;26.80;;;;;;5018970;28;20036;-72
2022/09/16 10:11:49;;;;;;;1.45;0.40;;;16.20;27.30;;;;;;5035229;28;20147;-72
2022/09/16 10:14:45;;;;;;;1.45;0.65;;;16.00;21.70;;;;;;5035209;28;20085;-74
2022/09/16 10:17:16;;;;;;;4.57;0.55;;;15.60;23.00;;;;;;5034926;28;20053;-72
2022/09/16 10:19:55;;;;;;;1.05;0.43;;;15.50;34.80;;;;;;5055005;28;20102;-72
2022/09/16 10:22:33;;;;;;;0.65;0.40;;;15.60;43.50;;;;;;5038676;28;20544;-73
2022/09/16 10:25:22;;;;;;;2.45;0.55;;;16.00;34.20;;;;;;5054966;28;20040;-73
2022/09/16 10:27:58;;;;;;;2.08;0.60;;;16.10;32.30;;;;;;5038676;28;20045;-73
2022/09/16 10:30:46;;;;;;;1.23;0.55;;;16.30;35.40;;;;;;5038618;28;20094;-73
2022/09/16 10:33:28;;;;;;;2.13;0.60;;;16.20;25.90;;;;;;5054212;28;20079;-72
2022/09/16 10:36:04;;;;;;;1.77;0.60;;;16.10;2.30;;;;;;5038348;28;20128;-72
2022/09/16 10:38:37;;;;;;;0.70;0.40;;;16.30;41.00;;;;;;5054849;28;20052;-71
2022/09/16 10:41:08;;;;;;;1.35;0.50;;;16.20;30.20;;;;;;5055057;28;20087;-69
2022/09/16 10:43:37;;;;;;;1.58;0.47;;;15.80;36.90;;;;;;5054735;28;20090;-70
2022/09/16 10:46:04;;;;;;;1.65;0.38;;;15.50;55.40;;;;;;5054810;28;20080;-71
2022/09/16 10:48:32;;;;;;;1.42;0.40;;;15.40;63.60;;;;;;5038090;28;20043;-72
2022/09/16 10:51:01;;;;;;;2.30;0.60;;;15.30;60.50;;;;;;5054751;28;20044;-71
2022/09/16 10:53:43;;;;;;;4.88;0.90;;;15.50;67.90;;;;;;5058284;28;20041;-71
2022/09/16 10:56:21;;;;;;;7.78;0.65;;;15.60;60.50;;;;;;5058616;28;20040;-72
2022/09/16 10:58:46;;;;;;;1.65;0.65;;;15.70;49.80;;;;;;5058476;28;20047;-72
2022/09/16 11:01:44;;;;;;;1.23;0.50;;;15.90;52.20;;;;;;5058499;28;20123;-72
2022/09/16 11:04:24;;;;;;;0.45;0.32;;;16.10;28.50;;;;;;5014986;28;20102;-71
2022/09/16 11:07:15;;;;;;;2.33;1.02;;;16.40;16.40;;;;;;5041690;28;20052;-72
2022/09/16 11:10:02;;;;;;;0.82;0.43;;;16.80;28.60;;;;;;5058293;28;20040;-72
2022/09/16 11:12:57;;;;;;;5.45;0.70;;;16.60;9.20;;;;;;5041961;28;20612;-73
2022/09/16 11:15:26;;;;;;;0.77;0.40;;;16.50;5.20;;;;;;5041517;28;20036;-73
2022/09/16 11:18:10;;;;;;;0.93;0.50;;;16.60;2.20;;;;;;5058003;28;20500;-71
2022/09/16 11:20:39;;;;;;;6.53;0.65;;;16.40;1.00;;;;;;5041449;28;20041;-72
2022/09/16 11:23:15;;;;;;;3.88;0.70;;;16.70;10.90;;;;;;5041286;28;20046;-72
2022/09/16 11:25:59;;;;;;;0.75;0.50;;;16.50;1.00;;;;;;5058107;28;20049;-71
2022/09/16 11:28:36;;;;;;;2.70;0.52;;;16.50;1.00;;;;;;5041506;28;20510;-72
2022/09/16 11:31:27;;;;;;;3.05;0.63;;;16.70;1.00;;;;;;5058085;28;20072;-72
2022/09/16 11:34:21;;;;;;;0.52;0.40;;;16.70;2.30;;;;;;5058052;28;20044;-72
2022/09/16 11:36:59;;;;;;;1.50;0.47;;;16.70;99.90;;;;;;5057733;28;20086;-72
2022/09/16 11:39:25;;;;;;;0.40;0.40;;;16.70;99.90;;;;;;5057860;28;20107;-72
2022/09/16 11:42:39;;;;;;;1.70;0.68;;;16.90;99.90;;;;;;5041151;28;20068;-73
2022/09/16 11:45:11;;;;;;;3.63;0.60;;;17.10;99.90;;;;;;4987531;28;20141;-72
2022/09/16 11:47:48;;;;;;;2.75;0.70;;;16.80;99.90;;;;;;5041300;28;20127;-73
2022/09/16 11:50:31;;;;;;;3.85;0.55;;;16.70;99.90;;;;;;5057422;28;20048;-72
2022/09/16 11:53:17;;;;;;;1.40;0.50;;;;;;;;;;5057562;28;20040;-70
2022/09/16 11:56:13;;;;;;;3.35;0.70;;;16.20;1.00;;;;;;5017449;28;20087;-70
2022/09/16 11:58:45;;;;;;;1.35;0.50;;;;;;;;;;5057515;28;20043;-70
2022/09/16 12:01:17;;;;;;;2.42;0.65;;;;;;;;;;5057561;28;20084;-72
2022/09/16 12:03:54;;;;;;;2.28;0.70;;;;;;;;;;5039856;28;20372;-73
2022/09/16 12:06:23;;;;;;;4.47;0.70;;;;;;;;;;5057421;28;20068;-73
2022/09/16 12:09:00;;;;;;;1.00;0.65;;;;;;;;;;5057107;28;20036;-71
2022/09/16 12:11:32;;;;;;;3.05;1.15;;;;;;;;;;5057054;28;20039;-76
2022/09/16 12:14:17;;;;;;;3.90;0.85;;;16.70;99.90;;;;;;5040576;28;20495;-77
2022/09/16 12:16:48;;;;;;;4.43;0.75;;;16.50;99.90;;;;;;5040358;28;20114;-71
2022/09/16 12:19:32;;;;;;;2.15;0.80;;;16.70;99.90;;;;;;5040288;28;20052;-70
2022/09/16 12:22:39;;;;;;;3.42;0.75;;;16.90;99.90;;;;;;5057127;28;20099;-69
2022/09/16 12:25:26;;;;;;;3.60;0.40;;;17.00;99.90;;;;;;5056826;28;20137;-69
2022/09/16 12:28:00;;;;;;;2.67;0.55;;;17.00;1.00;;;;;;5056821;28;20037;-73
2022/09/16 12:30:38;;;;;;;4.68;0.68;;;17.30;1.00;;;;;;5056638;28;20174;-70
2022/09/16 12:33:28;;;;;;;3.00;0.52;;;17.30;99.90;;;;;;5056646;28;20048;-72
2022/09/16 12:36:02;;;;;;;2.55;0.68;;;17.30;99.90;;;;;;5056796;28;20487;-71
2022/09/16 12:38:29;;;;;;;8.70;0.80;;;17.10;99.90;;;;;;5056484;28;20079;-70
2022/09/16 12:41:03;;;;;;;0.90;0.38;;;17.20;99.90;;;;;;5056441;28;20047;-72
2022/09/16 12:43:55;;;;;;;1.65;0.52;;;17.10;1.00;;;;;;5039681;28;20085;-73
2022/09/16 12:46:32;;;;;;;3.83;0.77;;;17.00;99.90;;;;;;5056284;28;20101;-74
2022/09/16 12:49:25;;;;;;;3.53;0.73;;;16.90;99.90;;;;;;5039753;28;20045;-74
2022/09/16 12:52:10;;;;;;;2.28;0.70;;;16.90;99.90;;;;;;5056518;28;20045;-74
2022/09/16 12:55:07;;;;;;;2.85;0.60;;;16.90;99.90;;;;;;5039620;28;20094;-74
2022/09/16 12:57:51;;;;;;;5.57;1.00;;;16.60;99.90;;;;;;5040102;28;20044;-74
2022/09/16 13:00:27;;;;;;;1.88;0.65;;;16.60;99.90;;;;;;5039604;28;20127;-75
2022/09/16 13:03:04;;;;;;;3.10;0.60;;;16.70;99.90;;;;;;5023955;28;20043;-70
2022/09/16 13:05:37;;;;;;;3.50;0.70;;;16.70;83.60;;;;;;5056088;28;20044;-69
2022/09/16 13:08:16;;;;;;;1.75;0.57;;;16.80;99.90;;;;;;5039704;28;20484;-69
2022/09/16 13:10:42;;;;;;;3.67;0.88;;;16.90;99.90;;;;;;5056321;28;20065;-70
2022/09/16 13:13:22;;;;;;;3.13;1.05;;;16.80;90.10;;;;;;5056230;28;20130;-69
2022/09/16 13:15:57;;;;;;;2.90;0.75;;;16.80;99.90;;;;;;5056173;28;20510;-69
2022/09/16 13:18:36;;;;;;;4.97;0.90;;;16.90;99.90;;;;;;5055837;28;20056;-70
2022/09/16 13:21:19;;;;;;;2.67;0.73;;;17.00;99.90;;;;;;5055839;28;20415;-69
2022/09/16 13:23:48;;;;;;;2.08;0.60;;;16.80;99.90;;;;;;5039122;28;20399;-69
2022/09/16 13:26:13;;;;;;;3.53;1.20;;;16.50;1.00;;;;;;5056031;28;20523;-69
2022/09/16 13:28:42;;;;;;;6.18;0.80;;;;;;;;;;5039025;28;20036;-70
2022/09/16 13:31:11;;;;;;;0.98;0.50;;;;;;;;;;5055573;28;20044;-69
2022/09/16 13:33:42;;;;;;;3.45;0.70;;;16.30;99.90;;;;;;5039251;28;20044;-70